createdAt,value
2019-01-03T00:02:38.423Z,1.80
2019-01-03T00:08:15.358Z,2.00
2019-01-03T00:11:03.023Z,1.97
2019-01-03T00:13:50.812Z,1.87
2019-01-03T00:16:38.414Z,1.43
2019-01-03T00:19:45.389Z,1.80
2019-01-03T00:25:41.433Z,1.67
2019-01-03T00:28:29.033Z,2.67
2019-01-03T00:31:16.679Z,1.97
2019-01-03T00:34:04.279Z,5.10
2019-01-03T00:37:11.239Z,2.47
2019-01-03T00:39:58.835Z,2.90
2019-01-03T00:42:46.465Z,2.83
2019-01-03T00:45:34.069Z,2.93
2019-01-03T00:48:21.771Z,2.60
2019-01-03T00:53:58.475Z,3.10
2019-01-03T00:56:46.075Z,3.20
2019-01-03T00:59:33.787Z,3.63
2019-01-03T01:02:21.457Z,2.80
2019-01-03T01:05:09.310Z,2.90
2019-01-03T01:14:19.383Z,2.30
2019-01-03T01:17:26.272Z,2.80
2019-01-03T01:20:33.194Z,2.43
2019-01-03T01:28:51.413Z,2.00
2019-01-03T01:31:39.016Z,3.23
2019-01-03T01:34:26.681Z,2.87
2019-01-03T01:37:14.351Z,2.67
2019-01-03T01:42:37.293Z,1.50
2019-01-03T01:45:45.835Z,2.57
2019-01-03T01:48:52.763Z,2.50
2019-01-03T01:51:59.722Z,1.90
2019-01-03T01:54:47.321Z,1.60
2019-01-03T01:57:35.089Z,1.10
2019-01-03T02:00:22.758Z,2.03
2019-01-03T02:03:10.637Z,2.53
2019-01-03T02:06:17.580Z,1.53
2019-01-03T02:09:05.386Z,1.70
2019-01-03T02:15:01.411Z,1.80
2019-01-03T02:17:49.076Z,1.00
2019-01-03T02:20:56.150Z,2.10
2019-01-03T02:23:43.811Z,1.80
2019-01-03T02:26:31.516Z,1.50
2019-01-03T02:29:19.112Z,1.53
2019-01-03T02:32:26.180Z,2.13
2019-01-03T02:35:33.103Z,1.23
2019-01-03T02:38:40.097Z,1.57
2019-01-03T02:47:31.006Z,1.80
2019-01-03T02:53:26.694Z,1.63
2019-01-03T02:59:03.499Z,2.10
2019-01-03T03:01:51.094Z,2.03
2019-01-03T03:04:38.886Z,1.83
2019-01-03T03:07:26.481Z,2.57
2019-01-03T03:13:28.426Z,1.70
2019-01-03T03:16:16.136Z,1.30
2019-01-03T03:19:03.803Z,2.30
2019-01-03T03:22:10.770Z,1.57
2019-01-03T03:24:58.368Z,1.97
2019-01-03T03:27:46.000Z,1.70
2019-01-03T03:30:52.948Z,2.17
2019-01-03T03:33:40.643Z,2.30
2019-01-03T03:39:17.425Z,1.57
2019-01-03T03:42:24.352Z,2.63
2019-01-03T03:45:12.062Z,2.20
2019-01-03T03:54:02.562Z,3.00
2019-01-03T03:59:44.723Z,2.60
2019-01-03T04:02:51.676Z,2.80
2019-01-03T04:05:39.306Z,2.20
2019-01-03T04:08:26.975Z,2.30
2019-01-03T04:11:33.936Z,3.20
2019-01-03T04:14:21.682Z,2.60
2019-01-03T04:17:09.373Z,2.43
2019-01-03T04:23:05.414Z,2.40
2019-01-03T04:25:53.041Z,3.27
2019-01-03T04:29:00.097Z,4.13
2019-01-03T04:34:37.040Z,2.77
2019-01-03T04:37:24.635Z,2.90
2019-01-03T04:40:12.269Z,3.43
2019-01-03T04:42:59.868Z,2.43
2019-01-03T04:45:47.758Z,3.60
2019-01-03T04:52:03.125Z,2.53
2019-01-03T04:54:50.800Z,4.17
2019-01-03T04:57:38.443Z,2.47
2019-01-03T05:00:46.848Z,2.77
2019-01-03T05:03:34.571Z,3.20
2019-01-03T05:11:51.047Z,3.47
2019-01-03T05:14:58.005Z,2.57
2019-01-03T05:17:45.610Z,4.53
2019-01-03T05:20:33.393Z,2.80
2019-01-03T05:23:20.998Z,3.17
2019-01-03T05:26:27.958Z,2.80
2019-01-03T05:29:34.893Z,4.10
2019-01-03T05:32:22.527Z,3.43
2019-01-03T05:35:10.138Z,3.50
2019-01-03T05:40:52.927Z,4.17
2019-01-03T05:46:29.634Z,4.33
2019-01-03T05:49:17.305Z,4.37
2019-01-03T05:54:40.355Z,4.03
2019-01-03T05:57:28.063Z,3.57
2019-01-03T06:00:15.733Z,3.17
2019-01-03T06:03:03.362Z,3.53
2019-01-03T06:05:50.965Z,4.67
2019-01-03T06:08:57.932Z,4.20
2019-01-03T06:14:53.975Z,5.40
2019-01-03T06:17:41.574Z,4.77
2019-01-03T06:20:29.279Z,4.83
2019-01-03T06:23:16.948Z,5.00
2019-01-03T06:26:04.691Z,3.20
2019-01-03T06:28:52.344Z,6.30
2019-01-03T06:31:40.145Z,5.67
2019-01-03T06:34:27.743Z,6.67
2019-01-03T06:37:15.480Z,6.00
2019-01-03T06:40:03.100Z,5.37
2019-01-03T06:45:46.073Z,5.10
2019-01-03T06:48:33.736Z,5.83
2019-01-03T06:51:21.504Z,4.80
2019-01-03T06:54:09.112Z,5.07
2019-01-03T06:56:56.839Z,5.43
2019-01-03T06:59:44.506Z,5.37
2019-01-03T07:02:32.290Z,6.47
2019-01-03T07:05:19.888Z,8.33
2019-01-03T07:08:07.521Z,6.57
2019-01-03T07:11:14.377Z,5.70
2019-01-03T07:14:02.093Z,7.23
2019-01-03T07:16:49.758Z,4.70
2019-01-03T07:22:32.164Z,6.37
2019-01-03T07:25:39.043Z,6.40
2019-01-03T07:28:45.897Z,6.50
2019-01-03T07:31:52.787Z,7.43
2019-01-03T07:34:40.380Z,7.03
2019-01-03T07:37:47.341Z,6.57
2019-01-03T07:40:35.024Z,6.77
2019-01-03T07:45:58.085Z,5.70
2019-01-03T07:49:05.050Z,6.10
2019-01-03T07:52:11.990Z,5.77
2019-01-03T07:54:59.694Z,7.17
2019-01-03T07:57:47.372Z,7.00
2019-01-03T08:00:35.069Z,6.07
2019-01-03T08:03:41.928Z,6.93
2019-01-03T08:06:29.750Z,7.27
2019-01-03T08:12:25.781Z,7.87
2019-01-03T08:15:13.381Z,6.20
2019-01-03T08:18:01.010Z,6.47
2019-01-03T08:20:48.692Z,7.63
2019-01-03T08:26:31.295Z,7.40
2019-01-03T08:29:19.030Z,8.57
2019-01-03T08:32:06.632Z,8.30
2019-01-03T08:34:54.266Z,8.47
2019-01-03T08:37:41.939Z,9.40
2019-01-03T08:40:48.910Z,9.13
2019-01-03T08:43:55.780Z,9.00
2019-01-03T08:46:43.536Z,7.73
2019-01-03T08:49:31.148Z,8.37
2019-01-03T08:52:18.813Z,7.50
2019-01-03T08:55:06.411Z,8.83
2019-01-03T08:57:54.067Z,8.40
2019-01-03T09:03:50.203Z,9.80
2019-01-03T09:06:37.804Z,8.63
2019-01-03T09:09:47.112Z,8.70
2019-01-03T09:16:02.466Z,8.13
2019-01-03T09:18:50.143Z,8.70
2019-01-03T09:21:57.198Z,9.20
2019-01-03T09:25:04.050Z,9.97
2019-01-03T09:30:50.456Z,9.53
2019-01-03T09:33:38.198Z,8.97
2019-01-03T09:36:45.159Z,7.90
2019-01-03T09:39:32.829Z,9.13
2019-01-03T09:42:20.609Z,9.43
2019-01-03T09:45:08.280Z,8.83
2019-01-03T09:50:49.013Z,10.10
2019-01-03T09:53:36.903Z,10.33
2019-01-03T09:56:24.708Z,10.87
2019-01-03T09:59:12.495Z,10.80
2019-01-03T10:02:00.168Z,10.50
2019-01-03T10:04:48.034Z,10.23
2019-01-03T10:07:35.834Z,10.43
2019-01-03T10:10:44.368Z,12.10
2019-01-03T10:13:32.165Z,9.70
2019-01-03T10:16:20.127Z,10.70
2019-01-03T10:19:07.925Z,9.77
2019-01-03T10:21:55.629Z,9.57
2019-01-03T10:24:43.426Z,9.73
2019-01-03T10:27:31.294Z,10.60
2019-01-03T10:29:59.778Z,10.70
2019-01-03T10:32:47.486Z,9.73
2019-01-03T10:35:35.287Z,10.40
2019-01-03T10:38:22.993Z,9.67
2019-01-03T10:41:10.808Z,9.03
2019-01-03T10:43:39.364Z,9.10
2019-01-03T10:46:27.086Z,8.87
2019-01-03T10:48:55.601Z,9.37
2019-01-03T10:51:43.348Z,9.13
2019-01-03T10:54:31.186Z,9.60
2019-01-03T10:56:59.664Z,9.00
2019-01-03T10:59:28.146Z,9.27
2019-01-03T11:01:56.661Z,9.10
2019-01-03T11:04:25.141Z,9.30
2019-01-03T11:07:12.998Z,8.90
2019-01-03T11:09:41.557Z,8.40
2019-01-03T11:18:17.305Z,8.70
2019-01-03T11:21:05.035Z,7.27
2019-01-03T11:26:46.905Z,9.10
2019-01-03T11:29:34.609Z,9.13
2019-01-03T11:32:03.161Z,8.37
2019-01-03T11:34:51.061Z,10.50
2019-01-03T11:37:38.651Z,8.80
2019-01-03T11:40:47.181Z,9.00
2019-01-03T11:43:34.994Z,8.57
2019-01-03T11:46:03.516Z,9.67
2019-01-03T11:48:51.211Z,9.07
2019-01-03T11:51:21.499Z,9.60
2019-01-03T11:53:50.063Z,8.53
2019-01-03T11:56:18.531Z,10.00
2019-01-03T11:58:47.129Z,9.27
2019-01-03T12:01:15.702Z,10.60
2019-01-03T12:03:44.626Z,9.47
2019-01-03T12:06:13.105Z,9.77
2019-01-03T12:08:41.728Z,9.57
2019-01-03T12:11:10.242Z,10.87
2019-01-03T12:13:38.726Z,11.10
2019-01-03T12:16:07.364Z,10.80
2019-01-03T12:18:35.913Z,11.60
2019-01-03T12:21:04.468Z,10.00
2019-01-03T12:23:32.978Z,11.70
2019-01-03T12:26:01.463Z,11.27
2019-01-03T12:28:30.131Z,12.13
2019-01-03T12:30:58.694Z,13.23
2019-01-03T12:33:27.178Z,11.70
2019-01-03T12:35:55.758Z,12.07
2019-01-03T12:38:24.243Z,13.73
2019-01-03T12:40:52.778Z,11.60
2019-01-03T12:43:21.267Z,12.57
2019-01-03T12:45:49.818Z,14.60
2019-01-03T12:48:18.406Z,13.40
2019-01-03T12:50:46.890Z,13.73
2019-01-03T12:53:15.419Z,14.00
2019-01-03T12:55:43.982Z,14.53
2019-01-03T12:58:12.530Z,13.40
2019-01-03T13:00:41.185Z,13.50
2019-01-03T13:03:09.807Z,14.83
2019-01-03T13:05:38.480Z,12.83
2019-01-03T13:08:06.962Z,12.07
2019-01-03T13:10:35.513Z,15.43
2019-01-03T13:13:04.123Z,12.77
2019-01-03T13:15:32.731Z,13.37
2019-01-03T13:18:01.250Z,12.90
2019-01-03T13:20:29.734Z,11.60
2019-01-03T13:22:58.288Z,11.83
2019-01-03T13:25:26.823Z,11.33
2019-01-03T13:27:55.326Z,12.53
2019-01-03T13:30:24.029Z,12.00
2019-01-03T13:32:52.515Z,12.90
2019-01-03T13:35:22.143Z,13.97
2019-01-03T13:37:50.726Z,12.70
2019-01-03T13:40:19.234Z,13.27
2019-01-03T13:42:47.888Z,13.47
2019-01-03T13:45:16.369Z,13.33
2019-01-03T13:47:44.934Z,12.37
2019-01-03T13:50:13.585Z,12.17
2019-01-03T13:52:42.140Z,11.50
2019-01-03T13:55:10.743Z,11.13
2019-01-03T13:57:39.218Z,11.70
2019-01-03T14:00:09.667Z,10.97
2019-01-03T14:02:38.250Z,11.97
2019-01-03T14:05:06.888Z,10.83
2019-01-03T14:07:35.654Z,10.57
2019-01-03T14:10:05.674Z,11.60
2019-01-03T14:12:34.226Z,11.40
2019-01-03T14:15:02.883Z,11.60
2019-01-03T14:17:31.504Z,11.90
2019-01-03T14:20:00.030Z,10.30
2019-01-03T14:22:28.496Z,11.17
2019-01-03T14:24:56.976Z,8.60
2019-01-03T14:27:25.512Z,11.60
2019-01-03T14:29:54.001Z,10.00
2019-01-03T14:32:22.528Z,10.50
2019-01-03T14:34:51.010Z,9.70
2019-01-03T14:37:19.784Z,9.60
2019-01-03T14:39:48.435Z,10.00
2019-01-03T14:42:16.913Z,8.63
2019-01-03T14:44:45.525Z,8.83
2019-01-03T14:47:14.136Z,8.70
2019-01-03T14:49:42.801Z,8.87
2019-01-03T14:52:11.281Z,9.90
2019-01-03T14:54:39.842Z,7.73
2019-01-03T14:57:08.458Z,8.07
2019-01-03T14:59:37.000Z,7.43
2019-01-03T15:02:05.734Z,7.97
2019-01-03T15:04:34.268Z,8.00
2019-01-03T15:07:02.759Z,8.97
2019-01-03T15:09:31.345Z,8.93
2019-01-03T15:11:59.901Z,8.90
2019-01-03T15:14:28.420Z,8.07
2019-01-03T15:16:57.674Z,8.47
2019-01-03T15:19:28.918Z,6.93
2019-01-03T15:21:57.544Z,7.63
2019-01-03T15:24:26.094Z,8.27
2019-01-03T15:26:54.760Z,7.37
2019-01-03T15:29:23.384Z,7.33
2019-01-03T15:31:52.149Z,6.60
2019-01-03T15:34:21.171Z,6.33
2019-01-03T15:36:52.973Z,7.30
2019-01-03T15:39:23.581Z,7.50
2019-01-03T15:41:52.936Z,7.00
2019-01-03T15:44:22.095Z,6.70
2019-01-03T15:46:52.768Z,8.37
2019-01-03T15:49:21.438Z,8.13
2019-01-03T15:51:50.061Z,8.50
2019-01-03T15:54:19.016Z,7.80
2019-01-03T15:56:47.889Z,9.07
2019-01-03T15:59:16.439Z,7.87
2019-01-03T16:01:45.022Z,9.13
2019-01-03T16:04:13.545Z,10.00
2019-01-03T16:06:42.173Z,8.20
2019-01-03T16:09:10.681Z,7.80
2019-01-03T16:11:39.427Z,8.50
2019-01-03T16:14:07.985Z,8.93
2019-01-03T16:16:37.652Z,8.10
2019-01-03T16:19:06.285Z,8.27
2019-01-03T16:21:34.942Z,7.47
2019-01-03T16:24:04.314Z,8.33
2019-01-03T16:26:32.926Z,8.37
2019-01-03T16:29:01.650Z,8.27
2019-01-03T16:31:30.192Z,7.20
2019-01-03T16:33:58.858Z,8.63
2019-01-03T16:36:27.401Z,8.17
2019-01-03T16:38:56.156Z,8.60
2019-01-03T16:41:24.771Z,9.17
2019-01-03T16:43:53.315Z,8.67
2019-01-03T16:46:21.892Z,8.80
2019-01-03T16:48:50.846Z,8.70
2019-01-03T16:51:19.731Z,7.90
2019-01-03T16:53:48.344Z,8.03
2019-01-03T16:56:16.840Z,8.17
2019-01-03T16:58:45.432Z,10.10
2019-01-03T17:01:14.052Z,8.90
2019-01-03T17:03:45.047Z,10.23
2019-01-03T17:06:13.883Z,9.70
2019-01-03T17:08:42.731Z,10.43
2019-01-03T17:11:13.378Z,9.57
2019-01-03T17:13:43.444Z,11.07
2019-01-03T17:16:12.304Z,9.60
2019-01-03T17:18:42.090Z,11.00
2019-01-03T17:21:10.735Z,12.30
2019-01-03T17:23:39.326Z,10.53
2019-01-03T17:26:07.878Z,11.27
2019-01-03T17:28:36.632Z,10.27
2019-01-03T17:31:05.255Z,11.17
2019-01-03T17:33:33.839Z,13.00
2019-01-03T17:36:02.555Z,11.03
2019-01-03T17:38:31.040Z,11.40
2019-01-03T17:40:59.708Z,11.00
2019-01-03T17:43:28.355Z,10.80
2019-01-03T17:45:56.847Z,11.70
2019-01-03T17:48:25.368Z,11.00
2019-01-03T17:50:53.922Z,12.40
2019-01-03T17:53:22.577Z,10.70
2019-01-03T17:55:51.198Z,11.50
2019-01-03T17:58:19.890Z,10.10
2019-01-03T18:00:48.571Z,10.73
2019-01-03T18:03:17.248Z,12.73
2019-01-03T18:05:45.949Z,11.60
2019-01-03T18:08:14.510Z,10.80
2019-01-03T18:10:43.134Z,10.40
2019-01-03T18:13:11.663Z,10.77
2019-01-03T18:15:40.188Z,13.17
2019-01-03T18:18:08.811Z,12.73
2019-01-03T18:20:37.291Z,11.17
2019-01-03T18:23:05.843Z,12.50
2019-01-03T18:25:34.387Z,12.00
2019-01-03T18:28:02.873Z,11.00
2019-01-03T18:30:31.458Z,10.50
2019-01-03T18:33:00.085Z,12.10
2019-01-03T18:35:28.640Z,10.20
2019-01-03T18:37:57.182Z,12.63
2019-01-03T18:40:25.815Z,12.70
2019-01-03T18:42:54.419Z,11.53
2019-01-03T18:45:23.045Z,12.20
2019-01-03T18:47:51.612Z,11.60
2019-01-03T18:50:20.233Z,11.43
2019-01-03T18:52:48.881Z,10.60
2019-01-03T18:55:17.459Z,11.10
2019-01-03T18:57:46.088Z,12.60
2019-01-03T19:00:14.683Z,12.03
2019-01-03T19:02:43.303Z,13.07
2019-01-03T19:05:11.973Z,12.10
2019-01-03T19:07:40.549Z,11.50
2019-01-03T19:10:10.549Z,12.50
2019-01-03T19:12:39.206Z,11.97
2019-01-03T19:15:09.549Z,11.50
2019-01-03T19:17:38.210Z,11.87
2019-01-03T19:20:09.460Z,12.40
2019-01-03T19:22:38.162Z,13.90
2019-01-03T19:25:14.913Z,13.27
2019-01-03T19:27:43.643Z,12.07
2019-01-03T19:30:13.055Z,12.37
2019-01-03T19:32:41.753Z,12.43
2019-01-03T19:35:11.728Z,14.43
2019-01-03T19:37:40.352Z,13.60
2019-01-03T19:40:11.534Z,13.17
2019-01-03T19:42:40.881Z,14.30
2019-01-03T19:45:11.774Z,14.10
2019-01-03T19:47:40.528Z,13.30
2019-01-03T19:50:15.227Z,14.50
2019-01-03T19:52:44.827Z,15.30
2019-01-03T19:55:13.489Z,12.40
2019-01-03T19:57:42.192Z,13.20
2019-01-03T20:00:13.730Z,13.10
2019-01-03T20:02:45.633Z,11.37
2019-01-03T20:05:14.496Z,9.80
2019-01-03T20:07:43.223Z,12.73
2019-01-03T20:10:13.191Z,11.50
2019-01-03T20:12:43.337Z,9.37
2019-01-03T20:15:14.101Z,10.80
2019-01-03T20:17:42.876Z,10.07
2019-01-03T20:20:11.888Z,10.53
2019-01-03T20:22:40.934Z,9.57
2019-01-03T20:25:10.664Z,8.70
2019-01-03T20:27:39.431Z,8.77
2019-01-03T20:30:10.802Z,7.80
2019-01-03T20:32:39.783Z,8.60
2019-01-03T20:35:08.973Z,10.13
2019-01-03T20:37:37.757Z,9.23
2019-01-03T20:40:09.091Z,10.67
2019-01-03T20:42:38.050Z,8.80
2019-01-03T20:45:11.884Z,11.47
2019-01-03T20:47:40.802Z,11.13
2019-01-03T20:50:12.473Z,11.00
2019-01-03T20:52:41.342Z,11.67
2019-01-03T20:55:10.118Z,12.77
2019-01-03T20:57:38.928Z,12.00
2019-01-03T21:00:13.339Z,14.93
2019-01-03T21:02:42.133Z,12.87
2019-01-03T21:05:10.916Z,7.70
2019-01-03T21:07:40.179Z,5.00
2019-01-03T21:10:10.938Z,12.23
2019-01-03T21:12:39.745Z,12.50
2019-01-03T21:15:11.784Z,13.80
2019-01-03T21:17:43.238Z,14.33
2019-01-03T21:20:14.214Z,16.60
2019-01-03T21:22:42.945Z,16.60
2019-01-03T21:25:12.162Z,15.90
2019-01-03T21:27:43.598Z,12.43
2019-01-03T21:30:15.942Z,14.17
2019-01-03T21:32:44.689Z,14.10
2019-01-03T21:35:13.388Z,15.27
2019-01-03T21:37:42.286Z,11.67
2019-01-03T21:40:11.924Z,11.10
2019-01-03T21:42:40.668Z,8.20
2019-01-03T21:45:11.141Z,8.83
2019-01-03T21:47:40.086Z,5.67
2019-01-03T21:50:10.924Z,5.53
2019-01-03T21:52:39.644Z,6.57
2019-01-03T21:55:08.394Z,5.60
2019-01-03T21:57:37.013Z,6.07
2019-01-03T22:00:08.709Z,5.33
2019-01-03T22:02:37.254Z,5.50
2019-01-03T22:05:06.468Z,6.43
2019-01-03T22:07:35.047Z,5.20
2019-01-03T22:10:04.668Z,5.23
2019-01-03T22:12:33.222Z,4.50
2019-01-03T22:15:01.765Z,4.70
2019-01-03T22:17:30.445Z,5.10
2019-01-03T22:19:58.974Z,8.80
2019-01-03T22:22:27.649Z,7.87
2019-01-03T22:24:56.411Z,8.10
2019-01-03T22:27:25.026Z,8.90
2019-01-03T22:29:53.767Z,9.30
2019-01-03T22:32:22.347Z,8.50
2019-01-03T22:34:50.901Z,8.60
2019-01-03T22:37:19.500Z,9.73
2019-01-03T22:39:48.148Z,9.20
2019-01-03T22:42:16.831Z,10.20
2019-01-03T22:44:45.381Z,8.10
2019-01-03T22:47:13.936Z,7.73
2019-01-03T22:49:42.525Z,8.13
2019-01-03T22:52:11.145Z,8.80
2019-01-03T22:54:39.912Z,9.07
2019-01-03T22:57:08.465Z,8.90
2019-01-03T22:59:37.606Z,10.90
2019-01-03T23:02:07.852Z,11.10
2019-01-03T23:04:36.504Z,9.90
2019-01-03T23:07:05.412Z,7.63
2019-01-03T23:09:33.976Z,9.90
2019-01-03T23:12:02.688Z,11.27
2019-01-03T23:14:31.347Z,11.17
2019-01-03T23:16:59.927Z,11.07
2019-01-03T23:19:28.764Z,11.13
2019-01-03T23:21:57.319Z,11.27
2019-01-03T23:24:25.895Z,12.33
2019-01-03T23:26:54.416Z,11.50
2019-01-03T23:29:22.978Z,11.03
2019-01-03T23:31:53.796Z,12.20
2019-01-03T23:34:28.041Z,11.13
2019-01-03T23:36:53.003Z,9.53
2019-01-03T23:39:21.527Z,10.97
2019-01-03T23:41:50.087Z,10.40
2019-01-03T23:44:18.762Z,10.33
2019-01-03T23:46:47.320Z,9.00
2019-01-03T23:49:16.015Z,10.50
2019-01-03T23:51:44.676Z,9.00
2019-01-03T23:54:13.240Z,9.00
2019-01-03T23:56:41.888Z,8.50
2019-01-03T23:59:10.513Z,7.23
